This is the latest recevied weather packets stored in our database for station/object DF9PV-5. If no packets are shown the sender has not sent any weather packets the latest 10 day(s).
| Time | Temp. | Humidity | Pressure | Rain* | Wind** | Luminosity | Snow |
|---|---|---|---|---|---|---|---|
| 1777008333 | 3.33° C | 90% | 1024.2 hPa | 0 mm | - | - | - |
| 1777008031 | 3.33° C | 90% | 1024 hPa | 0 mm | - | - | - |
| 1777007725 | 2.78° C | 90% | 1024 hPa | 0 mm | - | - | - |
| 1777007437 | 2.78° C | 90% | 1023.9 hPa | 0 mm | - | - | - |
| 1777005672 | 2.78° C | 89% | 1023.9 hPa | 0 mm | - | - | - |
| 1777005023 | 3.33° C | 88% | 1023.8 hPa | 0 mm | - | - | - |
| 1777003533 | 3.33° C | 88% | 1023.9 hPa | 0 mm | - | - | - |
| 1777002925 | 3.33° C | 89% | 1023.8 hPa | 0 mm | - | - | - |
| 1777002032 | 2.78° C | 88% | 1023.9 hPa | 0 mm | - | - | - |
| 1777001139 | 3.33° C | 87% | 1023.9 hPa | 0 mm | - | - | - |
| 1776999629 | 3.33° C | 87% | 1024 hPa | 0 mm | - | - | - |
| 1776999021 | 3.33° C | 86% | 1023.9 hPa | 0 mm | - | - | - |
| 1776997535 | 3.89° C | 85% | 1024.2 hPa | 0 mm | - | - | - |
| 1776996928 | 3.89° C | 85% | 1024.2 hPa | 0 mm | - | - | - |
| 1776996032 | 4.44° C | 84% | 1024.2 hPa | 0 mm | - | - | - |
| 1776994829 | 5° C | 81% | 1024.3 hPa | 0 mm | - | - | - |
| 1776994547 | 5.56° C | 80% | 1024.3 hPa | 0 mm | - | - | - |
| 1776993345 | 5° C | 82% | 1024.4 hPa | 0 mm | - | - | - |
| 1776992125 | 5° C | 82% | 1024.3 hPa | 0 mm | - | - | - |
| 1776990925 | 5.56° C | 80% | 1024.4 hPa | 0 mm | - | - | - |
| 1776990353 | 6.11° C | 78% | 1024.6 hPa | 0 mm | - | - | - |
* Rain latest hour (hover to see other rain measurements)
** Current wind speed in m/s (hover to see current wind gust speed)